Time;durP1;ratioP1;P1;durP2;ratioP2;P2;SDS_P1;SDS_P2;PMS_P1;PMS_P2;Temp;Humidity;BMP_temperature;BMP_pressure;BME280_temperature;BME280_humidity;BME280_pressure;Samples;Min_cycle;Max_cycle;Signal;HPM_P1;HPM_P2
2022/04/28 00:00:25;;;;;;;;;;;;;;;7.25;77.42;97682.06;30001;983;1880;-59
2022/04/28 00:00:57;;;;;;;;;;;;;;;7.25;77.25;97681.25;30001;983;1880;-62
2022/04/28 00:01:28;;;;;;;;;;;;;;;7.25;77.28;97682.06;30001;983;1880;-64
2022/04/28 00:02:02;;;;;;;;;;;;;;;7.26;77.20;97683.69;30001;983;1858;-60
2022/04/28 00:02:33;;;;;;;;;;;;;;;7.26;77.13;97682.88;30001;983;1876;-62
2022/04/28 00:03:05;;;;;;;;;;;;;;;7.26;76.79;97689.09;30001;983;1880;-60
2022/04/28 00:03:36;;;;;;;;;;;;;;;7.26;77.20;97686.38;30001;983;1880;-57
2022/04/28 00:04:08;;;;;;;;;;;;;;;7.25;77.19;97682.06;30001;983;1881;-58
2022/04/28 00:04:39;;;;;;;;;;;;;;;7.26;77.24;97686.38;30001;982;1881;-59
2022/04/28 00:05:13;;;;;;;;;;;;;;;7.24;77.09;97680.41;30001;982;1881;-59
2022/04/28 00:05:44;;;;;;;;;;;;;;;7.24;76.93;97680.41;30001;982;1881;-63
2022/04/28 00:06:15;;;;;;;;;;;;;;;7.24;77.12;97680.41;30001;982;1786;-60
2022/04/28 00:06:46;;;;;;;;;;;;;;;7.23;77.20;97686.88;30001;982;1881;-60
2022/04/28 00:07:17;;;;;;;;;;;;;;;7.24;77.24;97683.13;30001;983;1858;-62
2022/04/28 00:07:48;;;;;;;;;;;;;;;7.23;77.50;97684.19;30001;983;1876;-59
2022/04/28 00:08:22;;;;;;;;;;;;;;;7.22;77.14;97687.94;30001;983;1880;-60
2022/04/28 00:08:59;;;;;;;;;;;;;;;7.22;77.14;97690.66;30001;983;1880;-58
2022/04/28 00:09:30;;;;;;;;;;;;;;;7.22;76.98;97685.25;30001;983;1858;-61
2022/04/28 00:10:01;;;;;;;;;;;;;;;7.22;77.06;97682.56;30001;983;1876;-58
2022/04/28 00:10:33;;;;;;;;;;;;;;;7.18;77.29;97684.13;30001;983;1880;-59
2022/04/28 00:11:05;;;;;;;;;;;;;;;7.17;77.45;97682.50;30001;983;1881;-62
2022/04/28 00:11:36;;;;;;;;;;;;;;;7.17;77.06;97681.69;30001;983;1881;-60
2022/04/28 00:12:10;;;;;;;;;;;;;;;7.16;77.23;97683.56;30001;983;1881;-63
2022/04/28 00:12:41;;;;;;;;;;;;;;;7.16;77.30;97686.25;30001;982;1881;-58
2022/04/28 00:13:14;;;;;;;;;;;;;;;7.15;77.67;97681.94;30001;982;1881;-60
2022/04/28 00:13:45;;;;;;;;;;;;;;;7.14;77.57;97701.88;30001;982;1859;-60
2022/04/28 00:14:21;;;;;;;;;;;;;;;7.12;77.40;97687.81;30001;982;1855;-62
2022/04/28 00:14:52;;;;;;;;;;;;;;;7.13;77.33;97691.34;30001;983;1880;-58
2022/04/28 00:15:23;;;;;;;;;;;;;;;7.11;77.60;97696.97;30001;983;1880;-59
2022/04/28 00:15:57;;;;;;;;;;;;;;;7.10;77.59;97684.56;30001;983;1880;-62
2022/04/28 00:16:28;;;;;;;;;;;;;;;7.11;77.49;97702.38;30001;983;1880;-59
2022/04/28 00:16:59;;;;;;;;;;;;;;;7.11;77.48;97691.59;30001;983;1880;-59
2022/04/28 00:17:30;;;;;;;;;;;;;;;7.10;77.27;97689.94;30001;983;1880;-60
2022/04/28 00:18:02;;;;;;;;;;;;;;;7.10;77.27;97692.66;30001;983;1880;-62
2022/04/28 00:18:33;;;;;;;;;;;;;;;7.10;77.37;97700.75;30001;983;1859;-59
2022/04/28 00:19:04;;;;;;;;;;;;;;;7.09;77.20;97693.72;30001;983;1876;-59
2022/04/28 00:19:35;;;;;;;;;;;;;;;7.08;77.41;97686.69;30001;983;1881;-62
2022/04/28 00:20:07;;;;;;;;;;;;;;;7.09;77.17;97691.03;30001;982;1881;-62
2022/04/28 00:20:38;;;;;;;;;;;;;;;7.10;77.49;97692.66;30001;982;1881;-62
2022/04/28 00:21:09;;;;;;;;;;;;;;;7.08;77.24;97692.09;30001;982;1881;-58
2022/04/28 00:21:40;;;;;;;;;;;;;;;7.10;77.50;97689.13;30001;982;1881;-58
2022/04/28 00:22:13;;;;;;;;;;;;;;;7.10;77.54;97689.94;30001;982;1881;-63
2022/04/28 00:22:45;;;;;;;;;;;;;;;7.11;77.31;97690.78;30001;983;1880;-59
2022/04/28 00:23:16;;;;;;;;;;;;;;;7.10;77.37;97687.25;30001;983;1858;-59
2022/04/28 00:23:50;;;;;;;;;;;;;;;7.10;77.29;97692.66;30001;983;1876;-62
2022/04/28 00:24:21;;;;;;;;;;;;;;;7.11;77.13;97688.88;30001;983;1880;-58
2022/04/28 00:24:55;;;;;;;;;;;;;;;7.08;77.02;97689.38;30001;983;1858;-58
2022/04/28 00:25:26;;;;;;;;;;;;;;;7.09;77.13;97688.31;30001;983;1876;-61
2022/04/28 00:25:57;;;;;;;;;;;;;;;7.09;77.01;97688.31;30001;986;1859;-60
2022/04/28 00:26:28;;;;;;;;;;;;;;;7.09;77.16;97684.81;30001;983;1876;-63
2022/04/28 00:26:58;;;;;;;;;;;;;;;7.08;77.36;97686.69;30001;983;1881;-59
2022/04/28 00:27:30;;;;;;;;;;;;;;;7.06;77.64;97688.81;30001;982;1881;-59
2022/04/28 00:28:01;;;;;;;;;;;;;;;7.04;77.52;97697.16;30001;982;1881;-58
2022/04/28 00:28:32;;;;;;;;;;;;;;;7.01;77.78;97678.78;30001;982;1881;-58
2022/04/28 00:29:02;;;;;;;;;;;;;;;6.97;77.67;97691.13;30001;984;1881;-58
2022/04/28 00:29:34;;;;;;;;;;;;;;;6.95;77.66;97689.75;30001;982;1881;-60
2022/04/28 00:30:07;;;;;;;;;;;;;;;6.95;77.88;97687.03;30001;983;1880;-59
2022/04/28 00:30:37;;;;;;;;;;;;;;;6.94;78.13;97690.81;30001;985;1858;-59
2022/04/28 00:31:08;;;;;;;;;;;;;;;6.95;77.81;97687.03;30001;983;1876;-59
2022/04/28 00:31:39;;;;;;;;;;;;;;;6.95;77.87;97687.03;30001;983;1880;-59
2022/04/28 00:32:10;;;;;;;;;;;;;;;6.97;77.57;97691.13;30001;983;1858;-59
2022/04/28 00:32:41;;;;;;;;;;;;;;;6.98;77.40;97691.94;30001;983;1876;-58
2022/04/28 00:33:11;;;;;;;;;;;;;;;6.99;77.43;97689.00;30001;983;1881;-61
2022/04/28 00:33:42;;;;;;;;;;;;;;;7.01;77.64;97688.75;30001;983;1881;-59
2022/04/28 00:34:13;;;;;;;;;;;;;;;7.03;77.66;97684.75;30001;982;1881;-59
2022/04/28 00:34:46;;;;;;;;;;;;;;;7.03;77.37;97679.34;30001;982;1881;-59
2022/04/28 00:35:17;;;;;;;;;;;;;;;7.05;77.43;97681.78;30001;982;1881;-59
2022/04/28 00:35:48;;;;;;;;;;;;;;;7.05;77.44;97684.50;30001;982;1881;-60
2022/04/28 00:36:19;;;;;;;;;;;;;;;7.05;77.20;97687.19;30001;982;1859;-59
2022/04/28 00:36:50;;;;;;;;;;;;;;;7.05;77.24;97679.91;30001;982;1877;-61
2022/04/28 00:37:22;;;;;;;;;;;;;;;7.07;76.99;97685.88;30001;983;1880;-59
2022/04/28 00:37:53;;;;;;;;;;;;;;;7.10;76.28;97684.56;30001;983;1880;-61
2022/04/28 00:38:24;;;;;;;;;;;;;;;7.11;76.01;97675.41;30001;983;1858;-59
2022/04/28 00:38:55;;;;;;;;;;;;;;;7.14;75.90;97682.19;30001;983;1876;-58
2022/04/28 00:39:26;;;;;;;;;;;;;;;7.15;76.34;97684.63;30001;983;1880;-60
2022/04/28 00:39:57;;;;;;;;;;;;;;;7.17;76.04;97679.78;30001;983;1880;-60
2022/04/28 00:40:27;;;;;;;;;;;;;;;7.18;76.14;97686.81;30001;983;1859;-60
2022/04/28 00:40:58;;;;;;;;;;;;;;;7.19;76.27;97683.06;30001;983;1876;-59
2022/04/28 00:41:29;;;;;;;;;;;;;;;7.20;76.56;97678.47;30001;983;1881;-58
2022/04/28 00:42:00;;;;;;;;;;;;;;;7.22;76.29;97687.12;30001;982;1881;-58
2022/04/28 00:42:30;;;;;;;;;;;;;;;7.22;76.31;97687.94;30001;982;1786;-59
2022/04/28 00:43:19;;;;;;;;;;;;;;;7.23;76.50;97681.50;30001;982;1881;-61
2022/04/28 00:43:51;;;;;;;;;;;;;;;7.25;76.30;97679.34;30001;982;1881;-60
2022/04/28 00:44:22;;;;;;;;;;;;;;;7.25;76.46;97682.06;30001;982;1881;-61
2022/04/28 00:44:53;;;;;;;;;;;;;;;7.26;76.18;97683.69;30001;982;1881;-61
2022/04/28 00:45:24;;;;;;;;;;;;;;;7.26;76.28;97672.88;30001;983;1858;-59
2022/04/28 00:45:55;;;;;;;;;;;;;;;7.27;75.55;97685.31;30001;983;1876;-58
2022/04/28 00:46:25;;;;;;;;;;;;;;;7.29;75.53;97677.75;30001;983;1880;-60
2022/04/28 00:46:57;;;;;;;;;;;;;;;7.31;75.13;97681.03;30001;983;1880;-59
2022/04/28 00:50:44;;;;;;;;;;;;;;;7.33;75.80;97688.88;30001;971;1879;-60
2022/04/28 00:51:15;;;;;;;;;;;;;;;7.33;76.03;97680.75;30001;982;1876;-60
2022/04/28 00:51:46;;;;;;;;;;;;;;;7.32;75.98;97679.94;30001;982;1881;-58
2022/04/28 00:52:20;;;;;;;;;;;;;;;7.31;76.05;97681.03;30001;982;1881;-59
2022/04/28 00:52:51;;;;;;;;;;;;;;;7.30;76.04;97684.78;30001;983;1880;-59
2022/04/28 00:53:22;;;;;;;;;;;;;;;7.30;76.16;97686.66;30001;986;1876;-59
2022/04/28 00:53:56;;;;;;;;;;;;;;;7.28;76.21;97678.81;30001;983;1880;-59
2022/04/28 00:54:28;;;;;;;;;;;;;;;7.29;76.21;97677.75;30001;983;1880;-60
2022/04/28 00:54:59;;;;;;;;;;;;;;;7.29;75.96;97683.16;30001;983;1880;-61
2022/04/28 00:55:30;;;;;;;;;;;;;;;7.29;75.96;97683.16;30001;983;1880;-59
2022/04/28 00:56:01;;;;;;;;;;;;;;;7.27;75.84;97685.31;30001;983;1859;-59
2022/04/28 00:56:32;;;;;;;;;;;;;;;7.27;75.80;97682.63;30001;983;1854;-60
2022/04/28 00:57:03;;;;;;;;;;;;;;;7.27;75.57;97685.31;30001;982;1881;-60
2022/04/28 00:57:34;;;;;;;;;;;;;;;7.28;75.75;97683.41;30001;982;1881;-59
2022/04/28 00:58:05;;;;;;;;;;;;;;;7.28;75.60;97686.09;30001;982;1881;-59
2022/04/28 00:58:39;;;;;;;;;;;;;;;7.26;75.61;97683.69;30001;982;1881;-60
2022/04/28 00:59:10;;;;;;;;;;;;;;;7.25;75.41;97682.06;30001;983;1880;-59
2022/04/28 00:59:41;;;;;;;;;;;;;;;7.25;75.47;97687.44;30001;983;1880;-59
2022/04/28 01:00:13;;;;;;;;;;;;;;;7.26;75.38;97678.28;30001;983;1880;-59
2022/04/28 01:00:44;;;;;;;;;;;;;;;7.26;74.95;97682.88;30001;983;1880;-59
2022/04/28 01:01:19;;;;;;;;;;;;;;;7.26;75.04;97678.28;30001;983;1880;-60
2022/04/28 01:01:53;;;;;;;;;;;;;;;7.27;75.23;97677.22;30001;983;1858;-60
2022/04/28 01:02:24;;;;;;;;;;;;;;;7.26;75.59;97681.00;30001;983;1876;-62
2022/04/28 01:02:55;;;;;;;;;;;;;;;7.24;75.79;97680.41;30001;983;1880;-60
2022/04/28 01:03:30;;;;;;;;;;;;;;;7.23;75.54;97676.09;30001;983;1881;-59
2022/04/28 01:04:01;;;;;;;;;;;;;;;7.22;75.81;97677.16;30001;983;1881;-59
2022/04/28 01:04:33;;;;;;;;;;;;;;;7.22;75.78;97677.16;30001;982;1881;-59
2022/04/28 01:05:04;;;;;;;;;;;;;;;7.23;75.84;97677.97;30001;982;1881;-60
2022/04/28 01:05:35;;;;;;;;;;;;;;;7.23;76.04;97677.97;30001;982;1881;-58
2022/04/28 01:06:07;;;;;;;;;;;;;;;7.23;75.76;97677.97;30001;982;1881;-60
2022/04/28 01:06:39;;;;;;;;;;;;;;;7.23;76.00;97676.09;30001;982;1859;-59
2022/04/28 01:07:11;;;;;;;;;;;;;;;7.23;76.01;97673.38;30001;983;1876;-59
2022/04/28 01:07:42;;;;;;;;;;;;;;;7.24;76.16;97677.72;30001;983;1880;-60
2022/04/28 01:08:13;;;;;;;;;;;;;;;7.23;76.27;97677.97;30001;983;1880;-60
2022/04/28 01:08:49;;;;;;;;;;;;;;;7.23;76.11;97677.97;30001;983;1880;-61
2022/04/28 01:09:23;;;;;;;;;;;;;;;7.23;76.22;97681.50;30001;983;1880;-60
2022/04/28 01:09:54;;;;;;;;;;;;;;;7.23;75.99;97684.19;30001;983;1880;-59
2022/04/28 01:10:25;;;;;;;;;;;;;;;7.24;76.14;97675.03;30001;983;1880;-59
2022/04/28 01:10:56;;;;;;;;;;;;;;;7.25;76.12;97673.12;30001;983;1881;-60
2022/04/28 01:11:28;;;;;;;;;;;;;;;7.25;75.79;97676.66;30001;983;1881;-60
2022/04/28 01:11:59;;;;;;;;;;;;;;;7.25;75.79;97673.97;30001;982;1859;-59
2022/04/28 01:12:29;;;;;;;;;;;;;;;7.25;75.75;97673.97;30001;982;1876;-59
2022/04/28 01:13:00;;;;;;;;;;;;;;;7.25;76.58;97675.84;30001;964;1764;-59
2022/04/28 01:13:31;;;;;;;;;;;;;;;7.24;76.19;97680.41;30001;982;1877;-59
2022/04/28 01:14:02;;;;;;;;;;;;;;;7.24;76.27;97679.59;30001;982;1881;-59
2022/04/28 01:14:33;;;;;;;;;;;;;;;7.25;76.21;97675.84;30001;983;1880;-59
2022/04/28 01:15:05;;;;;;;;;;;;;;;7.25;75.91;97675.84;30001;983;1880;-59
2022/04/28 01:15:44;;;;;;;;;;;;;;;7.27;75.40;97673.69;30001;983;1880;-62
2022/04/28 01:16:16;;;;;;;;;;;;;;;7.28;74.79;97673.41;30001;983;1880;-60
2022/04/28 01:16:47;;;;;;;;;;;;;;;7.29;75.24;97672.34;30001;983;1880;-60
2022/04/28 01:17:18;;;;;;;;;;;;;;;7.31;75.13;97681.03;30001;983;1880;-58
2022/04/28 01:17:49;;;;;;;;;;;;;;;7.31;75.24;97670.22;30001;983;1880;-59
2022/04/28 01:18:20;;;;;;;;;;;;;;;7.33;75.04;97678.88;30001;983;1859;-59
2022/04/28 01:18:51;;;;;;;;;;;;;;;7.33;75.45;97678.88;30001;986;1872;-59
2022/04/28 01:19:21;;;;;;;;;;;;;;;7.34;75.22;97680.50;30001;982;1881;-59
2022/04/28 01:19:53;;;;;;;;;;;;;;;7.34;75.02;97680.50;30001;982;1881;-60
2022/04/28 01:20:24;;;;;;;;;;;;;;;7.35;75.30;97679.44;30001;982;1881;-60
2022/04/28 01:21:04;;;;;;;;;;;;;;;7.34;75.06;97674.31;30001;982;1881;-59
2022/04/28 01:21:35;;;;;;;;;;;;;;;7.34;75.22;97675.13;30001;982;1881;-60
2022/04/28 01:22:06;;;;;;;;;;;;;;;7.33;74.97;97678.88;30001;983;1880;-60
2022/04/28 01:22:36;;;;;;;;;;;;;;;7.32;75.26;97682.66;30001;983;1880;-59
2022/04/28 01:23:07;;;;;;;;;;;;;;;7.31;75.00;97681.03;30001;983;1880;-59
2022/04/28 01:23:38;;;;;;;;;;;;;;;7.31;75.31;97674.81;30001;983;1858;-60
2022/04/28 01:24:09;;;;;;;;;;;;;;;7.28;75.00;97684.22;30001;983;1876;-59
2022/04/28 01:24:40;;;;;;;;;;;;;;;7.26;75.42;97678.28;30001;983;1880;-59
2022/04/28 01:25:11;;;;;;;;;;;;;;;7.24;75.72;97683.13;30001;983;1881;-60
2022/04/28 01:25:42;;;;;;;;;;;;;;;7.23;75.72;97680.66;30001;983;1881;-59
2022/04/28 01:26:14;;;;;;;;;;;;;;;7.21;75.68;97680.09;30001;983;1881;-59
2022/04/28 01:26:46;;;;;;;;;;;;;;;7.19;75.67;97677.66;30001;983;1881;-60
2022/04/28 01:27:19;;;;;;;;;;;;;;;7.18;75.79;97686.81;30001;982;1881;-59
2022/04/28 01:27:50;;;;;;;;;;;;;;;7.17;75.66;97682.50;30001;982;1881;-61
2022/04/28 01:28:20;;;;;;;;;;;;;;;7.17;75.84;97676.28;30001;982;1881;-60
2022/04/28 01:28:51;;;;;;;;;;;;;;;7.16;75.79;97672.75;30001;982;1859;-60
2022/04/28 01:29:22;;;;;;;;;;;;;;;7.15;75.86;97683.81;30001;983;1876;-59
2022/04/28 01:29:53;;;;;;;;;;;;;;;7.13;75.91;97681.34;30001;983;1880;-59
2022/04/28 01:30:24;;;;;;;;;;;;;;;7.12;75.82;97682.44;30001;983;1880;-59
2022/04/28 01:30:56;;;;;;;;;;;;;;;7.11;75.87;97680.78;30001;983;1880;-59
2022/04/28 01:31:27;;;;;;;;;;;;;;;7.08;75.84;97686.69;30001;983;1880;-59
2022/04/28 01:31:58;;;;;;;;;;;;;;;7.05;76.01;97687.19;30001;983;1880;-59
2022/04/28 01:32:29;;;;;;;;;;;;;;;7.03;76.18;97681.22;30001;983;1880;-59
2022/04/28 01:33:00;;;;;;;;;;;;;;;7.01;76.00;97680.66;30001;983;1881;-59
2022/04/28 01:33:31;;;;;;;;;;;;;;;6.98;76.27;97675.75;30001;983;1881;-60
2022/04/28 01:34:04;;;;;;;;;;;;;;;6.97;76.67;97685.72;30001;982;1859;-59
2022/04/28 01:34:35;;;;;;;;;;;;;;;6.95;76.45;97690.56;30001;982;1876;-64
2022/04/28 01:35:06;;;;;;;;;;;;;;;6.94;76.78;97683.53;30001;982;1881;-63
2022/04/28 01:35:42;;;;;;;;;;;;;;;6.94;76.70;97686.22;30001;982;1881;-59
2022/04/28 01:36:13;;;;;;;;;;;;;;;6.92;76.76;97684.87;30001;982;1881;-58
2022/04/28 01:36:44;;;;;;;;;;;;;;;6.92;76.91;97687.56;30001;982;1881;-58
2022/04/28 01:37:18;;;;;;;;;;;;;;;6.90;76.86;97695.09;30002;983;1880;-59
2022/04/28 01:37:50;;;;;;;;;;;;;;;6.88;76.84;97686.44;30002;983;1880;-61
2022/04/28 01:38:22;;;;;;;;;;;;;;;6.87;77.04;97682.91;30002;983;1880;-59
2022/04/28 01:38:52;;;;;;;;;;;;;;;6.85;77.05;97686.94;30002;983;1880;-59
2022/04/28 01:39:27;;;;;;;;;;;;;;;6.84;77.08;97682.59;30002;983;1858;-61
2022/04/28 01:39:57;;;;;;;;;;;;;;;6.82;77.45;97688.25;30002;983;1876;-59
2022/04/28 01:40:28;;;;;;;;;;;;;;;6.79;77.52;97682.53;30002;983;1881;-61
2022/04/28 01:41:00;;;;;;;;;;;;;;;6.71;77.99;97679.19;30002;983;1881;-58
2022/04/28 01:41:31;;;;;;;;;;;;;;;6.70;78.04;97684.84;30002;982;1881;-59
2022/04/28 01:42:05;;;;;;;;;;;;;;;6.67;77.92;97679.94;30002;982;1881;-58
2022/04/28 01:42:36;;;;;;;;;;;;;;;6.65;78.09;97682.88;30002;982;1881;-59
2022/04/28 01:43:07;;;;;;;;;;;;;;;6.64;78.32;97686.63;30002;972;1901;-59
2022/04/28 01:43:38;;;;;;;;;;;;;;;6.64;78.03;97681.25;30002;982;1881;-58
2022/04/28 01:44:09;;;;;;;;;;;;;;;6.65;78.30;97692.84;30002;982;1881;-59
2022/04/28 01:44:40;;;;;;;;;;;;;;;6.64;78.25;97685.81;30002;983;1858;-59
2022/04/28 01:45:11;;;;;;;;;;;;;;;6.63;78.21;97690.41;30001;983;1876;-62
2022/04/28 01:45:42;;;;;;;;;;;;;;;6.63;78.33;97679.59;30002;983;1858;-63
2022/04/28 01:46:13;;;;;;;;;;;;;;;6.63;78.16;97679.59;30002;983;1876;-60
2022/04/28 01:46:44;;;;;;;;;;;;;;;6.64;78.28;97680.44;30002;983;1880;-58
2022/04/28 01:47:16;;;;;;;;;;;;;;;6.64;78.13;97683.13;30002;983;1880;-59
2022/04/28 01:47:46;;;;;;;;;;;;;;;6.64;78.30;97683.13;30002;983;1880;-59
2022/04/28 01:48:17;;;;;;;;;;;;;;;6.65;78.11;97677.47;30002;983;1881;-60
2022/04/28 01:48:48;;;;;;;;;;;;;;;6.65;78.32;97680.19;30002;982;1881;-59
2022/04/28 01:49:19;;;;;;;;;;;;;;;6.64;78.12;97686.63;30002;982;1859;-59
2022/04/28 01:49:50;;;;;;;;;;;;;;;6.65;78.16;97682.88;30002;982;1876;-59
2022/04/28 01:50:21;;;;;;;;;;;;;;;6.63;78.21;97682.31;30002;982;1881;-59
2022/04/28 01:55:00;;;;;;;;;;;;;;;6.56;78.32;97684.37;30002;983;1880;-58
2022/04/28 01:55:31;;;;;;;;;;;;;;;6.56;78.40;97684.37;30002;983;1881;-59
2022/04/28 01:56:02;;;;;;;;;;;;;;;6.57;78.43;97682.50;30002;983;1859;-59
2022/04/28 01:56:33;;;;;;;;;;;;;;;6.58;78.68;97682.25;30002;982;1876;-57
2022/04/28 01:57:04;;;;;;;;;;;;;;;6.59;78.68;97689.25;30002;982;1859;-60
2022/04/28 01:57:34;;;;;;;;;;;;;;;6.59;78.52;97683.87;30002;982;1876;-59
2022/04/28 01:58:05;;;;;;;;;;;;;;;6.58;78.33;97684.97;30002;982;1881;-60
2022/04/28 01:58:36;;;;;;;;;;;;;;;6.59;78.28;97691.94;30002;982;1881;-59
2022/04/28 01:59:09;;;;;;;;;;;;;;;6.59;78.31;97685.75;30002;982;1881;-61
2022/04/28 01:59:40;;;;;;;;;;;;;;;6.58;78.67;97684.97;30002;983;1880;-59
2022/04/28 02:00:12;;;;;;;;;;;;;;;6.58;78.38;97684.97;30002;983;1880;-58
2022/04/28 02:00:44;;;;;;;;;;;;;;;6.57;78.36;97679.81;30002;983;1858;-60
2022/04/28 02:01:15;;;;;;;;;;;;;;;6.56;78.75;97684.37;30002;983;1876;-59
2022/04/28 02:01:46;;;;;;;;;;;;;;;6.57;78.62;97683.31;30002;983;1880;-58
2022/04/28 02:02:17;;;;;;;;;;;;;;;6.56;78.79;97689.78;30002;983;1880;-59
2022/04/28 02:02:48;;;;;;;;;;;;;;;6.56;78.88;97684.37;30002;983;1880;-60
2022/04/28 02:03:19;;;;;;;;;;;;;;;6.56;78.80;97684.37;30002;983;1881;-63
2022/04/28 02:03:51;;;;;;;;;;;;;;;6.53;79.07;97687.56;30002;982;1881;-60
2022/04/28 02:04:25;;;;;;;;;;;;;;;6.51;79.13;97680.78;30002;982;1812;-59
2022/04/28 02:05:00;;;;;;;;;;;;;;;6.51;79.13;97680.78;30002;982;1881;-59
2022/04/28 02:05:31;;;;;;;;;;;;;;;6.50;79.32;97685.38;30002;982;1859;-60
2022/04/28 02:06:02;;;;;;;;;;;;;;;6.50;79.11;97682.69;30002;982;1855;-60
2022/04/28 02:06:33;;;;;;;;;;;;;;;6.49;79.46;97683.75;30002;983;1880;-63
2022/04/28 02:07:06;;;;;;;;;;;;;;;6.48;79.53;97682.09;30002;983;1880;-62
2022/04/28 02:07:37;;;;;;;;;;;;;;;6.47;79.45;97675.06;30002;983;1880;-60
2022/04/28 02:08:09;;;;;;;;;;;;;;;6.47;79.32;97680.47;30002;983;1880;-59
2022/04/28 02:08:43;;;;;;;;;;;;;;;6.48;79.55;97679.41;30002;983;1880;-59
2022/04/28 02:09:14;;;;;;;;;;;;;;;6.48;79.58;97682.09;30002;983;1880;-59
2022/04/28 02:09:48;;;;;;;;;;;;;;;6.50;79.58;97685.38;30002;983;1880;-61
2022/04/28 02:10:18;;;;;;;;;;;;;;;6.50;79.55;97685.38;30002;983;1880;-59
2022/04/28 02:10:49;;;;;;;;;;;;;;;6.51;79.71;97680.78;30002;983;1859;-59
2022/04/28 02:11:20;;;;;;;;;;;;;;;6.52;79.55;97679.72;30002;985;1871;-63
2022/04/28 02:11:52;;;;;;;;;;;;;;;6.52;79.75;97683.25;30002;982;1881;-59
2022/04/28 02:12:24;;;;;;;;;;;;;;;6.53;79.56;97679.50;30002;982;1859;-60
2022/04/28 02:12:55;;;;;;;;;;;;;;;6.54;79.62;97685.69;30002;982;1876;-59
2022/04/28 02:13:26;;;;;;;;;;;;;;;6.55;79.85;97681.94;30002;982;1881;-63
2022/04/28 02:14:00;;;;;;;;;;;;;;;6.54;79.62;97675.72;30002;983;1880;-63
2022/04/28 02:14:31;;;;;;;;;;;;;;;6.56;79.33;97679.00;30002;983;1880;-59
2022/04/28 02:15:03;;;;;;;;;;;;;;;6.57;79.51;97682.50;30002;983;1880;-62
2022/04/28 02:15:36;;;;;;;;;;;;;;;6.59;79.65;97683.87;30002;983;1880;-59
2022/04/28 02:16:07;;;;;;;;;;;;;;;6.64;79.45;97680.44;30002;983;1859;-58
2022/04/28 02:16:39;;;;;;;;;;;;;;;6.65;79.08;97682.88;30002;983;1876;-59
2022/04/28 02:17:12;;;;;;;;;;;;;;;6.68;78.93;97679.69;30002;983;1880;-63
2022/04/28 02:17:43;;;;;;;;;;;;;;;6.68;78.70;97689.66;30002;983;1880;-59
2022/04/28 02:18:14;;;;;;;;;;;;;;;6.69;78.93;97683.19;30002;983;1859;-62
2022/04/28 02:18:44;;;;;;;;;;;;;;;6.69;79.16;97684.00;30002;983;1876;-59
2022/04/28 02:19:16;;;;;;;;;;;;;;;6.68;79.39;97682.38;30002;982;1881;-60
2022/04/28 02:19:47;;;;;;;;;;;;;;;6.68;79.16;97677.00;30002;982;1859;-63
2022/04/28 02:20:19;;;;;;;;;;;;;;;6.67;79.50;97679.94;30002;982;1854;-60
2022/04/28 02:20:49;;;;;;;;;;;;;;;6.63;79.85;97676.91;30002;982;1881;-59
2022/04/28 02:21:20;;;;;;;;;;;;;;;6.57;80.42;97683.31;30002;982;1859;-60
2022/04/28 02:21:51;;;;;;;;;;;;;;;6.56;80.03;97673.59;30002;983;1876;-59
2022/04/28 02:22:22;;;;;;;;;;;;;;;6.56;79.83;97679.00;30002;983;1880;-60
2022/04/28 02:22:53;;;;;;;;;;;;;;;6.56;79.90;97686.25;30002;983;1880;-60
2022/04/28 02:23:24;;;;;;;;;;;;;;;6.56;79.67;97679.00;30002;983;1880;-60
2022/04/28 02:23:55;;;;;;;;;;;;;;;6.57;79.85;97677.13;30002;983;1880;-61
2022/04/28 02:24:25;;;;;;;;;;;;;;;6.57;79.51;97680.62;30002;983;1880;-62
2022/04/28 02:24:56;;;;;;;;;;;;;;;6.57;79.75;97680.62;30002;983;1880;-62
2022/04/28 02:25:28;;;;;;;;;;;;;;;6.58;79.78;97684.13;30002;983;1859;-59
2022/04/28 02:25:59;;;;;;;;;;;;;;;6.57;79.65;97677.94;30002;983;1876;-59
2022/04/28 02:26:30;;;;;;;;;;;;;;;6.58;79.58;97676.87;30002;982;1881;-60
2022/04/28 02:27:01;;;;;;;;;;;;;;;6.58;79.53;97682.25;30002;982;1859;-60
2022/04/28 02:27:32;;;;;;;;;;;;;;;6.56;79.84;97684.37;30002;982;1876;-60
2022/04/28 02:28:03;;;;;;;;;;;;;;;6.55;79.63;97681.94;30002;982;1881;-60
2022/04/28 02:28:34;;;;;;;;;;;;;;;6.54;80.01;97686.50;30001;982;1859;-61
2022/04/28 02:29:05;;;;;;;;;;;;;;;6.53;80.14;97684.06;30002;983;1876;-60
2022/04/28 02:29:36;;;;;;;;;;;;;;;6.51;79.89;97687.00;30002;983;1788;-59
2022/04/28 02:30:07;;;;;;;;;;;;;;;6.50;79.97;97688.06;30001;983;1880;-63
2022/04/28 02:30:38;;;;;;;;;;;;;;;6.51;80.21;97680.78;30001;983;1880;-60
2022/04/28 02:31:09;;;;;;;;;;;;;;;6.49;80.09;97682.91;30001;983;1858;-61
2022/04/28 02:31:40;;;;;;;;;;;;;;;6.45;80.41;97679.91;30001;983;1876;-60
2022/04/28 02:32:10;;;;;;;;;;;;;;;6.44;80.14;97686.34;30001;983;1880;-61
2022/04/28 02:33:30;;;;;;;;;;;;;;;6.43;80.84;97683.91;30001;983;1854;-60
2022/04/28 02:34:01;;;;;;;;;;;;;;;6.39;80.64;97692.47;30001;982;1881;-61
2022/04/28 02:34:36;;;;;;;;;;;;;;;6.36;80.97;97684.06;30001;982;1881;-61
2022/04/28 02:35:08;;;;;;;;;;;;;;;6.34;80.97;97699.66;30001;982;1881;-60
2022/04/28 02:35:39;;;;;;;;;;;;;;;6.31;81.11;97692.88;30001;982;1881;-61
2022/04/28 02:36:10;;;;;;;;;;;;;;;6.29;81.29;97692.31;30001;982;1855;-62
2022/04/28 02:36:42;;;;;;;;;;;;;;;6.28;81.28;97693.38;30001;983;1849;-61
2022/04/28 02:37:15;;;;;;;;;;;;;;;6.27;81.37;97693.63;30001;983;1876;-60
2022/04/28 02:37:46;;;;;;;;;;;;;;;6.25;81.64;97695.75;30001;983;1876;-61
2022/04/28 02:38:17;;;;;;;;;;;;;;;6.24;81.61;97691.41;30001;983;1876;-60
2022/04/28 02:38:48;;;;;;;;;;;;;;;6.22;81.58;97698.97;30001;983;1876;-61
2022/04/28 02:39:20;;;;;;;;;;;;;;;6.21;81.58;97694.63;30001;983;1876;-60
2022/04/28 02:39:51;;;;;;;;;;;;;;;6.20;81.73;97696.50;30002;983;1790;-60
2022/04/28 02:40:22;;;;;;;;;;;;;;;6.20;81.71;97695.69;30001;983;1876;-61
2022/04/28 02:40:53;;;;;;;;;;;;;;;6.19;81.44;97694.06;30001;982;1876;-60
2022/04/28 02:41:23;;;;;;;;;;;;;;;6.18;81.65;97693.25;30001;982;1876;-63
2022/04/28 02:41:54;;;;;;;;;;;;;;;6.18;81.52;97692.41;30001;982;1854;-61
2022/04/28 02:42:25;;;;;;;;;;;;;;;6.15;81.66;97691.03;30001;982;1872;-60
2022/04/28 02:42:57;;;;;;;;;;;;;;;6.15;81.55;97698.28;30001;982;1855;-61
2022/04/28 02:43:28;;;;;;;;;;;;;;;6.12;81.50;97699.59;30001;982;1872;-61
2022/04/28 02:43:59;;;;;;;;;;;;;;;6.11;81.53;97699.84;30001;982;1877;-60
2022/04/28 02:44:31;;;;;;;;;;;;;;;6.11;81.54;97699.84;30001;983;1876;-61
2022/04/28 02:45:02;;;;;;;;;;;;;;;6.11;81.61;97700.66;30001;983;1876;-60
2022/04/28 02:45:33;;;;;;;;;;;;;;;6.11;81.51;97699.84;30001;983;1876;-62
2022/04/28 02:46:04;;;;;;;;;;;;;;;6.09;81.38;97699.28;30001;983;1876;-61
2022/04/28 02:46:37;;;;;;;;;;;;;;;6.04;81.39;97703.50;30001;983;1854;-62
2022/04/28 02:47:08;;;;;;;;;;;;;;;6.03;81.43;97703.75;30001;983;1850;-63
2022/04/28 02:47:42;;;;;;;;;;;;;;;5.99;81.80;97692.66;30001;983;1876;-61
2022/04/28 02:48:14;;;;;;;;;;;;;;;5.92;82.17;97696.53;30001;982;1876;-61
2022/04/28 02:48:49;;;;;;;;;;;;;;;5.87;82.51;97702.66;30001;982;1876;-64
2022/04/28 02:49:21;;;;;;;;;;;;;;;5.86;82.64;97705.59;30001;982;1855;-60
2022/04/28 02:49:52;;;;;;;;;;;;;;;5.82;82.81;97699.87;30001;982;1872;-64
2022/04/28 02:50:23;;;;;;;;;;;;;;;5.81;82.35;97703.62;30001;982;1877;-60
2022/04/28 02:50:56;;;;;;;;;;;;;;;5.81;82.95;97702.81;30001;982;1877;-64
2022/04/28 02:51:28;;;;;;;;;;;;;;;5.79;82.87;97705.75;30001;982;1877;-64
2022/04/28 02:51:58;;;;;;;;;;;;;;;5.76;83.15;97705.41;30001;983;1876;-61
2022/04/28 02:52:29;;;;;;;;;;;;;;;5.74;83.59;97697.56;30001;983;1876;-64
2022/04/28 02:53:00;;;;;;;;;;;;;;;5.72;83.54;97702.38;30001;983;1854;-63
2022/04/28 02:53:34;;;;;;;;;;;;;;;5.71;83.20;97701.56;30001;983;1872;-62
2022/04/28 02:54:05;;;;;;;;;;;;;;;5.71;83.37;97698.06;30001;983;1876;-61
2022/04/28 02:54:39;;;;;;;;;;;;;;;5.70;83.52;97701.81;30001;983;1876;-64
2022/04/28 02:55:10;;;;;;;;;;;;;;;5.69;83.88;97700.16;30001;983;1876;-64
2022/04/28 02:55:41;;;;;;;;;;;;;;;5.68;83.49;97701.22;30001;983;1876;-63
2022/04/28 02:56:12;;;;;;;;;;;;;;;5.65;83.58;97694.44;30001;982;1876;-64
2022/04/28 02:56:42;;;;;;;;;;;;;;;5.65;83.37;97699.81;30001;982;1876;-61
2022/04/28 02:57:13;;;;;;;;;;;;;;;5.66;83.21;97697.94;30001;982;1855;-60
2022/04/28 02:57:44;;;;;;;;;;;;;;;5.65;83.27;97699.00;30001;982;1872;-64
2022/04/28 02:58:15;;;;;;;;;;;;;;;5.64;83.32;97703.56;30001;982;1877;-63
2022/04/28 02:58:46;;;;;;;;;;;;;;;5.63;83.27;97695.75;30001;982;1877;-60
2022/04/28 02:59:17;;;;;;;;;;;;;;;5.64;83.39;97697.38;30001;983;1876;-62